BAW970 EGLL-EDDH
Flight info
| Callsign | BAW970 |
|---|---|
| Flight time | N/A |
| Altitude | 35000 |
| Route | BPK6J BPK Q295 SOMVA DCT MAVAS DCT GASTU DCT OSTOR/N0397F230 T904 RIBSO RIBSO7A |
| Aircraft | A320/M-SDE3FGIJ1KRWXY/SB1 |
Departure
| Time | 2026-04-30 18:05 |
|---|---|
| Airport | London Heathrow Airport (EGLL) |
Arrival
| Time | N/A |
|---|---|
| Airport | Hamburg Helmut Schmidt Airport (EDDH) |
| Time | Latitude | Longitude | Altitude | Speed | Heading |
|---|---|---|---|---|---|
| 2026-04-30 17:39 | 51.46931 | -0.48647 | 86 ft | 0 kts | 360° |
| 2026-04-30 17:57 | 51.46926 | -0.48647 | 86 ft | 4 kts | 360° |
| 2026-04-30 17:58 | 51.46877 | -0.48684 | 87 ft | 4 kts | 90° |
| 2026-04-30 17:59 | 51.46877 | -0.48711 | 88 ft | 2 kts | 90° |
| 2026-04-30 18:00 | 51.46876 | -0.48805 | 86 ft | 0 kts | 90° |
| 2026-04-30 18:02 | 51.46876 | -0.48804 | 86 ft | 0 kts | 90° |
| 2026-04-30 18:02 | 51.46814 | -0.48750 | 86 ft | 8 kts | 182° |
| 2026-04-30 18:03 | 51.46603 | -0.48765 | 90 ft | 12 kts | 195° |
| 2026-04-30 18:04 | 51.46480 | -0.48475 | 86 ft | 34 kts | 90° |
| 2026-04-30 18:05 | 51.46511 | -0.42883 | 1195 ft | 161 kts | 90° |
| 2026-04-30 18:06 | 51.49675 | -0.35416 | 2940 ft | 252 kts | 55° |
| 2026-04-30 18:07 | 51.53293 | -0.25374 | 6308 ft | 273 kts | 75° |
| 2026-04-30 18:08 | 51.57552 | -0.19205 | 8899 ft | 299 kts | 21° |
| 2026-04-30 18:09 | 51.65987 | -0.14835 | 11005 ft | 353 kts | 19° |
| 2026-04-30 18:10 | 51.74384 | -0.06867 | 13599 ft | 358 kts | 62° |
| 2026-04-30 18:11 | 51.76572 | 0.08578 | 15934 ft | 360 kts | 85° |
| 2026-04-30 18:11 | 51.77561 | 0.20764 | 17682 ft | 370 kts | 85° |
| 2026-04-30 18:12 | 51.78592 | 0.33279 | 19356 ft | 379 kts | 85° |
| 2026-04-30 18:13 | 51.79271 | 0.41737 | 20444 ft | 384 kts | 85° |
| 2026-04-30 18:13 | 51.80179 | 0.53284 | 21825 ft | 391 kts | 86° |
| 2026-04-30 18:14 | 51.81009 | 0.63474 | 22959 ft | 398 kts | 82° |
| 2026-04-30 18:15 | 51.84003 | 0.76239 | 24297 ft | 410 kts | 71° |
| 2026-04-30 18:15 | 51.87315 | 0.89113 | 25497 ft | 416 kts | 71° |
| 2026-04-30 18:16 | 51.89547 | 0.97810 | 26254 ft | 421 kts | 71° |
| 2026-04-30 18:16 | 51.91800 | 1.06599 | 27028 ft | 424 kts | 71° |
| 2026-04-30 18:17 | 51.92930 | 1.11028 | 27407 ft | 427 kts | 71° |
| 2026-04-30 18:17 | 51.93679 | 1.13974 | 27655 ft | 428 kts | 71° |
| 2026-04-30 18:17 | 51.96333 | 1.24432 | 28533 ft | 433 kts | 71° |
| 2026-04-30 18:18 | 51.97110 | 1.27493 | 28792 ft | 435 kts | 71° |
| 2026-04-30 18:18 | 51.98263 | 1.32048 | 29162 ft | 437 kts | 71° |
| 2026-04-30 18:18 | 51.99416 | 1.36623 | 29524 ft | 439 kts | 71° |
| 2026-04-30 18:18 | 52.00574 | 1.41225 | 29878 ft | 442 kts | 71° |
| 2026-04-30 18:19 | 52.01738 | 1.45851 | 30240 ft | 443 kts | 71° |
| 2026-04-30 18:19 | 52.02902 | 1.50477 | 30658 ft | 442 kts | 71° |
| 2026-04-30 18:19 | 52.04064 | 1.55093 | 31097 ft | 441 kts | 71° |
| 2026-04-30 18:19 | 52.05219 | 1.59704 | 31518 ft | 440 kts | 71° |
| 2026-04-30 18:20 | 52.06369 | 1.64310 | 31952 ft | 439 kts | 71° |
| 2026-04-30 18:20 | 52.07512 | 1.68912 | 32396 ft | 438 kts | 71° |
| 2026-04-30 18:20 | 52.08648 | 1.73499 | 32865 ft | 437 kts | 71° |
| 2026-04-30 18:20 | 52.09780 | 1.78073 | 33315 ft | 436 kts | 71° |
| 2026-04-30 18:21 | 52.10908 | 1.82642 | 33774 ft | 434 kts | 71° |
| 2026-04-30 18:21 | 52.12031 | 1.87195 | 34233 ft | 433 kts | 71° |
| 2026-04-30 18:21 | 52.13153 | 1.91743 | 34614 ft | 432 kts | 71° |
| 2026-04-30 18:21 | 52.14271 | 1.96286 | 34968 ft | 432 kts | 71° |
| 2026-04-30 18:22 | 52.15371 | 2.00766 | 35196 ft | 433 kts | 71° |
| 2026-04-30 18:22 | 52.18744 | 2.14597 | 35255 ft | 438 kts | 71° |
| 2026-04-30 18:23 | 52.20982 | 2.23790 | 35258 ft | 439 kts | 71° |
| 2026-04-30 18:23 | 52.23218 | 2.33024 | 35258 ft | 439 kts | 71° |
| 2026-04-30 18:24 | 52.26563 | 2.46933 | 35252 ft | 439 kts | 71° |
| 2026-04-30 18:25 | 52.28776 | 2.56222 | 35264 ft | 439 kts | 71° |
| 2026-04-30 18:25 | 52.31774 | 2.70345 | 35279 ft | 438 kts | 76° |
| 2026-04-30 18:26 | 52.34306 | 2.84706 | 35286 ft | 438 kts | 76° |
| 2026-04-30 18:27 | 52.36811 | 2.99019 | 35296 ft | 438 kts | 76° |
| 2026-04-30 18:28 | 52.39299 | 3.13403 | 35299 ft | 437 kts | 76° |
| 2026-04-30 18:28 | 52.42844 | 3.27210 | 35307 ft | 439 kts | 67° |
| 2026-04-30 18:29 | 52.47960 | 3.45394 | 35311 ft | 439 kts | 67° |
| 2026-04-30 18:30 | 52.52991 | 3.63659 | 35323 ft | 438 kts | 69° |
| 2026-04-30 18:31 | 52.56495 | 3.77536 | 35320 ft | 438 kts | 69° |
| 2026-04-30 18:32 | 52.59976 | 3.91361 | 35328 ft | 438 kts | 69° |
| 2026-04-30 18:33 | 52.63494 | 4.05265 | 35324 ft | 438 kts | 69° |
| 2026-04-30 18:33 | 52.66983 | 4.19163 | 35337 ft | 437 kts | 69° |
| 2026-04-30 18:34 | 52.70420 | 4.32983 | 35335 ft | 436 kts | 69° |
| 2026-04-30 18:35 | 52.72713 | 4.42240 | 35346 ft | 436 kts | 69° |
| 2026-04-30 18:35 | 52.75001 | 4.51485 | 35350 ft | 435 kts | 69° |
| 2026-04-30 18:36 | 52.78413 | 4.65362 | 35357 ft | 435 kts | 69° |
| 2026-04-30 18:37 | 52.81807 | 4.79287 | 35340 ft | 435 kts | 69° |
| 2026-04-30 18:37 | 52.84061 | 4.88583 | 35344 ft | 435 kts | 69° |
| 2026-04-30 18:38 | 52.86309 | 4.97892 | 35344 ft | 435 kts | 69° |
| 2026-04-30 18:38 | 52.88538 | 5.07139 | 35349 ft | 435 kts | 69° |
| 2026-04-30 18:39 | 52.90777 | 5.16461 | 35337 ft | 435 kts | 69° |
| 2026-04-30 18:39 | 52.93007 | 5.25807 | 35339 ft | 436 kts | 69° |
| 2026-04-30 18:40 | 52.95221 | 5.35169 | 35362 ft | 436 kts | 69° |
| 2026-04-30 18:40 | 52.97436 | 5.44547 | 35362 ft | 436 kts | 69° |
| 2026-04-30 18:41 | 52.99653 | 5.53926 | 35356 ft | 437 kts | 69° |
| 2026-04-30 18:41 | 53.01865 | 5.63317 | 35363 ft | 436 kts | 69° |
| 2026-04-30 18:42 | 53.04061 | 5.72714 | 35363 ft | 436 kts | 69° |
| 2026-04-30 18:42 | 53.07318 | 5.86784 | 35364 ft | 436 kts | 69° |
| 2026-04-30 18:45 | 53.19197 | 6.38770 | 35391 ft | 436 kts | 69° |
| 2026-04-30 18:46 | 53.21321 | 6.48192 | 35395 ft | 436 kts | 69° |
| 2026-04-30 18:46 | 53.23454 | 6.57673 | 35401 ft | 436 kts | 69° |
| 2026-04-30 18:47 | 53.25577 | 6.67165 | 35394 ft | 436 kts | 69° |
| 2026-04-30 18:47 | 53.27683 | 6.76664 | 35412 ft | 436 kts | 69° |
| 2026-04-30 18:48 | 53.29785 | 6.86173 | 35422 ft | 435 kts | 69° |
| 2026-04-30 18:48 | 53.31877 | 6.95669 | 35423 ft | 435 kts | 69° |
| 2026-04-30 18:49 | 53.33960 | 7.05171 | 35413 ft | 435 kts | 69° |
| 2026-04-30 18:49 | 53.36034 | 7.14679 | 35398 ft | 434 kts | 69° |
| 2026-04-30 18:49 | 53.37064 | 7.19420 | 34908 ft | 433 kts | 69° |
| 2026-04-30 18:50 | 53.38096 | 7.24167 | 34202 ft | 435 kts | 69° |
| 2026-04-30 18:50 | 53.39118 | 7.28878 | 33424 ft | 437 kts | 69° |
| 2026-04-30 18:50 | 53.40156 | 7.33683 | 32639 ft | 439 kts | 69° |
| 2026-04-30 18:50 | 53.41189 | 7.38481 | 32055 ft | 436 kts | 69° |
| 2026-04-30 18:51 | 53.42212 | 7.43242 | 31521 ft | 432 kts | 69° |
| 2026-04-30 18:51 | 53.43224 | 7.47963 | 31003 ft | 428 kts | 69° |
| 2026-04-30 18:51 | 53.44225 | 7.52644 | 30480 ft | 425 kts | 69° |
| 2026-04-30 18:51 | 53.45217 | 7.57290 | 29885 ft | 421 kts | 70° |
| 2026-04-30 18:52 | 53.46196 | 7.61891 | 29295 ft | 417 kts | 70° |
| 2026-04-30 18:52 | 53.47168 | 7.66461 | 28722 ft | 413 kts | 70° |
| 2026-04-30 18:52 | 53.48125 | 7.70983 | 28169 ft | 409 kts | 70° |
| 2026-04-30 18:52 | 53.49074 | 7.75472 | 27618 ft | 406 kts | 70° |
| 2026-04-30 18:53 | 53.50016 | 7.79922 | 27086 ft | 402 kts | 69° |
| 2026-04-30 18:53 | 53.50949 | 7.84330 | 26574 ft | 398 kts | 70° |
| 2026-04-30 18:53 | 53.51870 | 7.88695 | 26071 ft | 395 kts | 70° |
| 2026-04-30 18:53 | 53.52778 | 7.93030 | 25583 ft | 392 kts | 70° |
| 2026-04-30 18:54 | 53.53675 | 7.97330 | 25108 ft | 388 kts | 70° |
| 2026-04-30 18:54 | 53.54568 | 8.01614 | 24646 ft | 385 kts | 70° |
| 2026-04-30 18:54 | 53.55452 | 8.05853 | 24198 ft | 383 kts | 70° |
| 2026-04-30 18:54 | 53.56326 | 8.10060 | 23720 ft | 380 kts | 70° |
| 2026-04-30 18:55 | 53.57190 | 8.14241 | 23229 ft | 377 kts | 70° |
| 2026-04-30 18:55 | 53.58895 | 8.22500 | 22242 ft | 370 kts | 71° |
| 2026-04-30 18:55 | 53.59735 | 8.26580 | 21763 ft | 367 kts | 71° |
| 2026-04-30 18:56 | 53.61389 | 8.34634 | 20813 ft | 360 kts | 71° |
| 2026-04-30 18:56 | 53.62195 | 8.38559 | 20370 ft | 357 kts | 71° |
| 2026-04-30 18:56 | 53.63001 | 8.42487 | 19904 ft | 353 kts | 71° |
| 2026-04-30 18:57 | 53.64584 | 8.50249 | 18978 ft | 347 kts | 71° |
| 2026-04-30 18:57 | 53.65363 | 8.54085 | 18492 ft | 344 kts | 71° |
| 2026-04-30 18:57 | 53.66136 | 8.57883 | 17978 ft | 342 kts | 71° |
| 2026-04-30 18:58 | 53.67662 | 8.65397 | 16982 ft | 336 kts | 72° |
| 2026-04-30 18:58 | 53.68411 | 8.69116 | 16484 ft | 333 kts | 72° |
| 2026-04-30 18:58 | 53.69153 | 8.72804 | 15999 ft | 331 kts | 72° |
| 2026-04-30 18:59 | 53.70619 | 8.80110 | 15052 ft | 326 kts | 72° |
| 2026-04-30 19:00 | 53.72779 | 8.90890 | 13649 ft | 319 kts | 72° |
| 2026-04-30 19:00 | 53.73485 | 8.94432 | 13174 ft | 317 kts | 72° |
| 2026-04-30 19:00 | 53.74882 | 9.01452 | 12239 ft | 313 kts | 72° |
| 2026-04-30 19:01 | 53.76249 | 9.08398 | 11471 ft | 309 kts | 72° |
| 2026-04-30 19:01 | 53.76927 | 9.11857 | 11432 ft | 312 kts | 72° |
| 2026-04-30 19:02 | 53.78298 | 9.18826 | 11437 ft | 313 kts | 72° |
| 2026-04-30 19:02 | 53.79672 | 9.25811 | 11439 ft | 313 kts | 72° |
| 2026-04-30 19:03 | 53.80442 | 9.32973 | 11439 ft | 312 kts | 94° |
| 2026-04-30 19:03 | 53.78993 | 9.39863 | 10436 ft | 311 kts | 123° |
| 2026-04-30 19:04 | 53.76533 | 9.45281 | 9847 ft | 285 kts | 140° |
| 2026-04-30 19:04 | 53.73416 | 9.46693 | 9542 ft | 291 kts | 185° |
| 2026-04-30 19:05 | 53.69878 | 9.44057 | 9152 ft | 262 kts | 190° |
| 2026-04-30 19:05 | 53.66418 | 9.44405 | 8891 ft | 248 kts | 161° |
| 2026-04-30 19:06 | 53.63074 | 9.45813 | 8695 ft | 248 kts | 162° |
| 2026-04-30 19:06 | 53.61401 | 9.46475 | 8549 ft | 246 kts | 162° |
| 2026-04-30 19:06 | 53.58081 | 9.47776 | 8212 ft | 244 kts | 162° |
| 2026-04-30 19:07 | 53.54785 | 9.49072 | 7874 ft | 242 kts | 162° |
| 2026-04-30 19:07 | 53.53147 | 9.49719 | 7716 ft | 241 kts | 162° |
| 2026-04-30 19:08 | 53.49806 | 9.49397 | 7377 ft | 252 kts | 202° |
| 2026-04-30 19:08 | 53.47246 | 9.45219 | 7032 ft | 278 kts | 233° |
| 2026-04-30 19:08 | 53.46180 | 9.42581 | 6850 ft | 266 kts | 234° |
| 2026-04-30 19:09 | 53.44184 | 9.37519 | 6387 ft | 256 kts | 234° |
| 2026-04-30 19:09 | 53.43208 | 9.35034 | 6115 ft | 254 kts | 234° |
| 2026-04-30 19:09 | 53.42237 | 9.32566 | 5857 ft | 252 kts | 234° |
| 2026-04-30 19:10 | 53.40327 | 9.27686 | 5431 ft | 248 kts | 234° |
| 2026-04-30 19:10 | 53.37932 | 9.23963 | 5107 ft | 234 kts | 189° |
| 2026-04-30 19:11 | 53.36372 | 9.24036 | 4849 ft | 222 kts | 156° |
| 2026-04-30 19:11 | 53.33735 | 9.26611 | 4325 ft | 220 kts | 144° |
| 2026-04-30 19:11 | 53.32468 | 9.28035 | 4092 ft | 219 kts | 143° |
| 2026-04-30 19:12 | 53.31449 | 9.29885 | 4001 ft | 218 kts | 113° |
| 2026-04-30 19:12 | 53.31238 | 9.32369 | 4003 ft | 220 kts | 80° |
| 2026-04-30 19:12 | 53.31909 | 9.34658 | 4004 ft | 225 kts | 51° |
| 2026-04-30 19:13 | 53.34170 | 9.38371 | 4000 ft | 226 kts | 53° |
| 2026-04-30 19:13 | 53.36046 | 9.42552 | 4003 ft | 226 kts | 56° |
| 2026-04-30 19:13 | 53.36977 | 9.44662 | 4002 ft | 226 kts | 56° |
| 2026-04-30 19:14 | 53.37912 | 9.46782 | 4002 ft | 226 kts | 56° |
| 2026-04-30 19:14 | 53.38846 | 9.48903 | 4003 ft | 226 kts | 56° |
| 2026-04-30 19:14 | 53.39698 | 9.51109 | 4007 ft | 224 kts | 67° |
| 2026-04-30 19:14 | 53.40438 | 9.53414 | 4009 ft | 226 kts | 57° |
| 2026-04-30 19:15 | 53.41409 | 9.55492 | 4004 ft | 227 kts | 52° |
| 2026-04-30 19:15 | 53.43449 | 9.59526 | 4006 ft | 227 kts | 52° |
| 2026-04-30 19:15 | 53.44465 | 9.61547 | 4010 ft | 227 kts | 52° |
| 2026-04-30 19:16 | 53.45480 | 9.63569 | 4013 ft | 227 kts | 52° |
| 2026-04-30 19:16 | 53.46470 | 9.65543 | 4008 ft | 214 kts | 52° |
| 2026-04-30 19:16 | 53.48259 | 9.69114 | 4004 ft | 188 kts | 52° |
| 2026-04-30 19:17 | 53.49099 | 9.70794 | 3920 ft | 186 kts | 52° |
| 2026-04-30 19:17 | 53.50758 | 9.74114 | 3486 ft | 186 kts | 52° |
| 2026-04-30 19:17 | 53.51590 | 9.75780 | 3236 ft | 186 kts | 52° |
| 2026-04-30 19:18 | 53.52977 | 9.78562 | 2812 ft | 187 kts | 52° |
| 2026-04-30 19:18 | 53.54097 | 9.80810 | 2485 ft | 188 kts | 52° |
| 2026-04-30 19:18 | 53.54935 | 9.82492 | 2382 ft | 186 kts | 52° |
| 2026-04-30 19:19 | 53.55772 | 9.84178 | 2866 ft | 195 kts | 52° |
| 2026-04-30 19:19 | 53.56683 | 9.86026 | 3199 ft | 218 kts | 52° |
| 2026-04-30 19:19 | 53.58665 | 9.90071 | 3710 ft | 226 kts | 52° |
| 2026-04-30 19:20 | 53.59665 | 9.92127 | 3923 ft | 228 kts | 52° |
| 2026-04-30 19:20 | 53.60667 | 9.94199 | 3999 ft | 228 kts | 52° |
| 2026-04-30 19:20 | 53.62662 | 9.98325 | 4010 ft | 227 kts | 52° |
| 2026-04-30 19:21 | 53.63662 | 10.00390 | 4011 ft | 227 kts | 52° |
| 2026-04-30 19:21 | 53.65661 | 10.04517 | 4011 ft | 227 kts | 52° |
| 2026-04-30 19:22 | 53.67659 | 10.08647 | 4009 ft | 227 kts | 52° |
| 2026-04-30 19:22 | 53.70645 | 10.14835 | 4011 ft | 227 kts | 52° |
| 2026-04-30 19:23 | 53.73633 | 10.21045 | 4013 ft | 227 kts | 52° |
| 2026-04-30 19:24 | 53.74638 | 10.25829 | 4010 ft | 223 kts | 104° |
| 2026-04-30 19:24 | 53.73877 | 10.28058 | 4127 ft | 223 kts | 138° |
| 2026-04-30 19:24 | 53.70888 | 10.28861 | 4640 ft | 235 kts | 198° |
| 2026-04-30 19:25 | 53.66763 | 10.24222 | 5009 ft | 244 kts | 224° |
| 2026-04-30 19:26 | 53.64429 | 10.20083 | 5012 ft | 244 kts | 224° |
| 2026-04-30 19:26 | 53.62102 | 10.15927 | 5011 ft | 244 kts | 224° |
| 2026-04-30 19:26 | 53.60939 | 10.13852 | 5013 ft | 244 kts | 224° |
| 2026-04-30 19:27 | 53.58611 | 10.09705 | 5011 ft | 244 kts | 224° |
| 2026-04-30 19:27 | 53.56286 | 10.05557 | 5013 ft | 243 kts | 224° |
| 2026-04-30 19:28 | 53.55130 | 10.03476 | 5012 ft | 243 kts | 224° |
| 2026-04-30 19:28 | 53.52821 | 9.99309 | 5011 ft | 244 kts | 224° |
| 2026-04-30 19:29 | 53.50511 | 9.95141 | 5012 ft | 244 kts | 224° |
| 2026-04-30 19:29 | 53.49356 | 9.93057 | 5011 ft | 244 kts | 224° |
| 2026-04-30 19:30 | 53.45897 | 9.86817 | 5010 ft | 244 kts | 224° |
| 2026-04-30 19:30 | 53.43598 | 9.82672 | 5014 ft | 244 kts | 224° |
| 2026-04-30 19:31 | 53.41288 | 9.78516 | 5011 ft | 244 kts | 224° |
| 2026-04-30 19:31 | 53.40130 | 9.76436 | 5011 ft | 243 kts | 224° |
| 2026-04-30 19:31 | 53.37817 | 9.72286 | 5011 ft | 244 kts | 224° |
| 2026-04-30 19:32 | 53.36660 | 9.70215 | 5009 ft | 243 kts | 224° |
| 2026-04-30 19:32 | 53.35500 | 9.68139 | 5009 ft | 243 kts | 224° |
| 2026-04-30 19:32 | 53.34344 | 9.66070 | 5009 ft | 243 kts | 224° |
| 2026-04-30 19:32 | 53.33196 | 9.64000 | 5008 ft | 242 kts | 224° |
| 2026-04-30 19:33 | 53.32075 | 9.61889 | 5005 ft | 244 kts | 232° |
| 2026-04-30 19:33 | 53.31487 | 9.59242 | 5007 ft | 248 kts | 265° |
| 2026-04-30 19:33 | 53.31791 | 9.56435 | 5007 ft | 248 kts | 298° |
| 2026-04-30 19:33 | 53.32904 | 9.54284 | 5008 ft | 245 kts | 330° |
| 2026-04-30 19:34 | 53.34484 | 9.53421 | 5010 ft | 239 kts | 3° |
| 2026-04-30 19:34 | 53.36092 | 9.53916 | 5013 ft | 235 kts | 21° |
| 2026-04-30 19:34 | 53.39145 | 9.55780 | 5008 ft | 233 kts | 24° |
| 2026-04-30 19:35 | 53.40644 | 9.56737 | 5009 ft | 233 kts | 24° |
| 2026-04-30 19:35 | 53.42177 | 9.57721 | 5009 ft | 233 kts | 24° |
| 2026-04-30 19:35 | 53.43690 | 9.58696 | 5009 ft | 233 kts | 24° |
| 2026-04-30 19:35 | 53.45202 | 9.59673 | 5009 ft | 233 kts | 24° |
| 2026-04-30 19:36 | 53.46714 | 9.60650 | 5009 ft | 233 kts | 24° |
| 2026-04-30 19:36 | 53.48174 | 9.61730 | 5004 ft | 230 kts | 38° |
| 2026-04-30 19:36 | 53.49563 | 9.66180 | 4400 ft | 221 kts | 82° |
| 2026-04-30 19:37 | 53.49770 | 9.68738 | 4057 ft | 222 kts | 84° |
| 2026-04-30 19:37 | 53.49957 | 9.71309 | 3746 ft | 222 kts | 84° |
| 2026-04-30 19:37 | 53.50141 | 9.73868 | 3534 ft | 217 kts | 84° |
| 2026-04-30 19:37 | 53.50319 | 9.76333 | 3405 ft | 208 kts | 84° |
| 2026-04-30 19:38 | 53.50491 | 9.78706 | 3260 ft | 201 kts | 84° |